Time;durP1;ratioP1;P1;durP2;ratioP2;P2;SDS_P1;SDS_P2;PMS_P1;PMS_P2;Temp;Humidity;BMP_temperature;BMP_pressure;BME280_temperature;BME280_humidity;BME280_pressure;Samples;Min_cycle;Max_cycle;Signal;HPM_P1;HPM_P2
2023/12/15 00:01:18;;;;;;;17.00;13.70;;;;;;;-0.99;100.00;99991.75;433979;1261;142175;-65
2023/12/15 00:11:24;;;;;;;13.80;10.70;;;;;;;-1.00;100.00;100002.58;432588;1258;139984;-64
2023/12/15 00:21:30;;;;;;;17.10;11.90;;;;;;;-1.03;100.00;100014.48;432618;1262;140588;-64
2023/12/15 00:31:36;;;;;;;;;;;;;;;-1.07;100.00;100029.98;433322;1259;139325;-64
2023/12/15 00:41:42;;;;;;;17.60;12.60;;;;;;;-1.10;100.00;100048.05;432620;1262;126326;-65
2023/12/15 00:51:48;;;;;;;13.00;11.70;;;;;;;-1.12;100.00;100079.34;432327;1262;140186;-66
2023/12/15 01:01:55;;;;;;;14.60;10.70;;;;;;;-1.14;100.00;100087.42;432658;1262;142695;-65
2023/12/15 01:12:01;;;;;;;15.90;12.10;;;;;;;-1.16;100.00;100105.65;433263;1259;139165;-66
2023/12/15 01:22:06;;;;;;;;;;;;;;;-1.17;100.00;100124.55;434047;1262;140398;-66
2023/12/15 01:32:12;;;;;;;17.50;11.80;;;;;;;-1.18;100.00;100136.41;434361;1259;125515;-67
2023/12/15 01:42:17;;;;;;;;;;;;;;;-1.17;100.00;100149.13;432930;1258;140842;-66
2023/12/15 01:52:24;;;;;;;14.40;10.00;;;;;;;-1.18;100.00;100161.52;433232;1257;126491;-67
2023/12/15 02:02:30;;;;;;;16.10;12.10;;;;;;;-1.18;100.00;100174.90;433941;1259;139741;-65
2023/12/15 02:12:36;;;;;;;13.10;10.70;;;;;;;-1.20;100.00;100177.84;433696;1259;140691;-67
2023/12/15 02:22:42;;;;;;;17.00;10.60;;;;;;;-1.19;100.00;100193.82;433729;1262;139347;-66
2023/12/15 02:32:49;;;;;;;17.30;12.10;;;;;;;-1.18;100.00;100205.48;433211;1262;141396;-65
2023/12/15 02:42:56;;;;;;;14.70;12.40;;;;;;;-1.18;100.00;100207.20;432616;1259;139467;-66
2023/12/15 02:53:00;;;;;;;;;;;;;;;-1.17;100.00;100227.30;433456;1259;139150;-66
2023/12/15 03:03:07;;;;;;;14.10;10.60;;;;;;;-1.16;100.00;100232.96;432800;1262;125444;-66
2023/12/15 03:13:13;;;;;;;16.00;13.00;;;;;;;-1.17;100.00;100231.42;432872;1262;139340;-67
2023/12/15 03:23:18;;;;;;;;;;;;;;;-1.20;100.00;100227.16;432803;1261;140105;-65
2023/12/15 03:33:26;;;;;;;14.00;10.50;;;;;;;-1.23;100.00;100245.73;432740;1262;126358;-65
2023/12/15 03:43:32;;;;;;;14.60;10.90;;;;;;;-1.24;100.00;100290.91;433587;1262;140294;-66
2023/12/15 03:53:37;;;;;;;;;;;;;;;-1.23;100.00;100306.03;432948;1262;139515;-67
2023/12/15 04:03:43;;;;;;;15.10;11.10;;;;;;;-1.26;100.00;100315.83;434150;1262;127060;-65
2023/12/15 04:13:49;;;;;;;13.10;10.10;;;;;;;-1.27;100.00;100319.95;432885;1260;172478;-65
2023/12/15 04:23:55;;;;;;;14.70;11.00;;;;;;;-1.29;100.00;100327.51;433324;1262;139136;-66
2023/12/15 04:34:02;;;;;;;15.70;10.80;;;;;;;-1.31;100.00;100346.95;434319;1258;139277;-66
2023/12/15 04:44:08;;;;;;;14.50;11.50;;;;;;;-1.33;100.00;100353.30;434800;1256;139415;-65
2023/12/15 04:54:12;;;;;;;;;;;;;;;-1.35;100.00;100359.49;435085;1259;141335;-66
2023/12/15 05:04:19;;;;;;;17.70;13.40;;;;;;;-1.37;100.00;100371.86;434449;1258;125859;-66
2023/12/15 05:14:23;;;;;;;;;;;;;;;-1.38;100.00;100381.31;434635;1254;139214;-66
2023/12/15 05:24:32;;;;;;;20.20;17.90;;;;;;;-1.41;100.00;100391.11;434680;1257;127337;-67
2023/12/15 05:34:38;;;;;;;17.20;13.30;;;;;;;-1.39;100.00;100395.40;433924;1256;140777;-67
2023/12/15 05:44:43;;;;;;;;;;;;;;;-1.40;100.00;100402.10;433748;1256;139236;-64
2023/12/15 05:54:49;;;;;;;16.20;11.70;;;;;;;-1.43;100.00;100409.84;435275;1258;126213;-66
2023/12/15 06:04:54;;;;;;;;;;;;;;;-1.46;100.00;100420.33;436101;1258;140028;-65
2023/12/15 06:15:00;;;;;;;16.70;12.90;;;;;;;-1.45;100.00;100439.55;434473;1258;125812;-66
2023/12/15 06:25:06;;;;;;;;;;;;;;;-1.41;100.00;100458.79;434222;1258;140345;-66
2023/12/15 06:35:12;;;;;;;18.40;13.10;;;;;;;-1.34;100.00;100468.57;438158;1258;128028;-66
2023/12/15 06:45:17;;;;;;;;;;;;;;;-1.32;100.00;100480.26;435275;1257;140300;-66
2023/12/15 06:55:23;;;;;;;14.30;11.00;;;;;;;-1.27;100.00;100492.44;435257;1258;125548;-65
2023/12/15 07:05:28;;;;;;;;;;;;;;;-1.13;100.00;100504.80;434846;1259;140551;-66
2023/12/15 07:15:34;;;;;;;16.00;12.40;;;;;;;-1.00;100.00;100524.38;436296;1259;126997;-66
2023/12/15 07:25:41;;;;;;;17.20;12.20;;;;;;;-0.90;100.00;100540.17;434794;1258;140940;-66
2023/12/15 07:35:47;;;;;;;18.00;14.20;;;;;;;-0.78;100.00;100547.90;433408;1260;139648;-69
2023/12/15 07:45:53;;;;;;;17.70;14.30;;;;;;;-0.69;100.00;100555.11;434305;1256;139765;-70
2023/12/15 07:56:01;;;;;;;22.70;16.00;;;;;;;-0.60;100.00;100565.74;435115;1259;141745;-69
2023/12/15 08:06:08;;;;;;;21.60;16.20;;;;;;;-0.46;100.00;100582.39;435034;1258;140004;-66
2023/12/15 08:16:15;;;;;;;19.40;15.10;;;;;;;-0.36;100.00;100598.55;436068;1259;139374;-73
2023/12/15 08:26:27;;;;;;;22.10;16.80;;;;;;;-0.35;100.00;100610.59;435345;1259;139481;-73
2023/12/15 08:36:33;;;;;;;25.10;19.00;;;;;;;-0.30;100.00;100628.45;437623;1254;139566;-75
2023/12/15 08:46:40;;;;;;;20.50;16.00;;;;;;;-0.20;100.00;100643.93;438915;1254;139748;-73
2023/12/15 08:56:46;;;;;;;19.70;14.40;;;;;;;-0.02;100.00;100667.64;438782;1254;139748;-69
2023/12/15 09:06:53;;;;;;;19.00;16.90;;;;;;;0.17;100.00;100675.14;438897;1260;139223;-71
2023/12/15 09:17:01;;;;;;;18.70;14.60;;;;;;;0.37;100.00;100675.58;434692;1260;140085;-78
2023/12/15 09:27:07;;;;;;;17.50;15.60;;;;;;;0.51;100.00;100680.69;438808;1258;140985;-71
2023/12/15 09:37:13;;;;;;;19.10;16.40;;;;;;;0.63;100.00;100701.13;439001;1259;139555;-73
2023/12/15 09:47:22;;;;;;;19.10;16.00;;;;;;;0.77;100.00;100712.95;437668;1254;139155;-66
2023/12/15 09:57:29;;;;;;;20.70;15.10;;;;;;;0.83;100.00;100708.96;436606;1254;139862;-67
2023/12/15 10:07:35;;;;;;;18.00;14.60;;;;;;;0.98;100.00;100714.03;436988;1254;140610;-74
2023/12/15 10:17:42;;;;;;;18.10;14.00;;;;;;;1.15;100.00;100716.86;438687;1254;141702;-72
2023/12/15 10:27:50;;;;;;;16.40;12.70;;;;;;;1.25;100.00;100723.16;438441;1258;140011;-61
2023/12/15 10:37:54;;;;;;;;;;;;;;;1.37;100.00;100728.94;435287;1254;139546;-67
2023/12/15 10:48:03;;;;;;;20.00;15.10;;;;;;;1.50;100.00;100727.98;434872;1254;125420;-64
2023/12/15 10:58:11;;;;;;;16.40;13.90;;;;;;;1.47;100.00;100735.42;434960;1257;139596;-63
2023/12/15 11:08:18;;;;;;;15.50;13.30;;;;;;;1.48;100.00;100747.15;435474;1254;141315;-76
2023/12/15 11:18:24;;;;;;;15.20;13.50;;;;;;;1.56;100.00;100758.66;438785;1254;140763;-73
2023/12/15 11:28:31;;;;;;;18.20;14.70;;;;;;;1.63;100.00;100751.00;437232;1254;139602;-64
2023/12/15 11:38:38;;;;;;;14.60;13.00;;;;;;;1.58;100.00;100747.94;433845;1259;139683;-65
2023/12/15 11:48:45;;;;;;;16.50;12.70;;;;;;;1.73;100.00;100751.42;434472;1257;140066;-74
2023/12/15 11:58:51;;;;;;;15.90;13.40;;;;;;;1.66;100.00;100757.54;435271;1259;139411;-71
2023/12/15 12:08:58;;;;;;;14.20;11.30;;;;;;;1.92;100.00;100763.70;434177;1259;139463;-69
2023/12/15 12:19:04;;;;;;;14.10;12.50;;;;;;;2.00;100.00;100773.29;434894;1254;139389;-68
2023/12/15 12:29:10;;;;;;;;;;;;;;;1.98;100.00;100783.67;437141;1258;140027;-70
2023/12/15 12:39:22;;;;;;;15.80;12.60;;;;;;;1.88;100.00;100790.84;434213;1259;126147;-67
2023/12/15 12:49:29;;;;;;;17.60;14.80;;;;;;;1.81;100.00;100782.44;437740;1254;139192;-70
2023/12/15 12:59:54;;;;;;;19.10;15.10;;;;;;;1.79;100.00;100789.55;435907;1254;139609;-67
2023/12/15 13:10:00;;;;;;;16.40;13.80;;;;;;;1.78;100.00;100808.36;434599;1254;140863;-68
2023/12/15 13:20:09;;;;;;;15.70;14.00;;;;;;;1.89;100.00;100806.55;434536;1254;140604;-67
2023/12/15 13:30:16;;;;;;;18.50;13.50;;;;;;;1.81;100.00;100813.35;435668;1259;140226;-67
2023/12/15 13:40:23;;;;;;;15.20;12.40;;;;;;;1.69;100.00;100820.17;434150;1258;140028;-66
2023/12/15 13:50:30;;;;;;;14.40;11.50;;;;;;;1.52;100.00;100828.23;434678;1254;141061;-70
2023/12/15 14:00:37;;;;;;;17.10;13.20;;;;;;;1.41;100.00;100842.80;435313;1256;140270;-69
2023/12/15 14:10:43;;;;;;;21.70;15.80;;;;;;;1.24;100.00;100846.86;434723;1259;140200;-74
2023/12/15 14:20:52;;;;;;;18.60;14.10;;;;;;;1.08;100.00;100855.73;434887;1258;139129;-70
2023/12/15 14:30:58;;;;;;;22.30;13.80;;;;;;;0.85;100.00;100860.30;434643;1254;140012;-69
2023/12/15 14:41:05;;;;;;;17.40;14.30;;;;;;;0.68;100.00;100872.25;436845;1257;140756;-69
2023/12/15 14:51:10;;;;;;;;;;;;;;;0.58;100.00;100877.45;435425;1254;139560;-66
2023/12/15 15:01:17;;;;;;;18.90;13.20;;;;;;;0.47;100.00;100881.60;437802;1254;126849;-66
2023/12/15 15:11:29;;;;;;;21.10;15.50;;;;;;;0.40;100.00;100883.52;435439;1256;140646;-66
2023/12/15 15:21:35;;;;;;;19.80;14.30;;;;;;;0.36;100.00;100876.98;434854;1256;139141;-74
2023/12/15 15:31:42;;;;;;;22.70;13.70;;;;;;;0.31;100.00;100881.11;438852;1254;139948;-66
2023/12/15 15:41:48;;;;;;;19.50;13.40;;;;;;;0.28;100.00;100883.52;436084;1254;139394;-70
2023/12/15 15:51:55;;;;;;;16.80;12.90;;;;;;;0.23;100.00;100895.92;437999;1254;140064;-74
2023/12/15 16:02:01;;;;;;;17.20;13.40;;;;;;;0.02;100.00;100892.83;435405;1254;139243;-75
2023/12/15 16:12:09;;;;;;;20.90;15.40;;;;;;;-0.01;100.00;100902.80;434239;1258;179482;-75
2023/12/15 16:22:16;;;;;;;21.80;15.40;;;;;;;0.04;100.00;100910.03;434166;1257;142077;-75
2023/12/15 16:32:21;;;;;;;;;;;;;;;0.08;100.00;100912.98;437410;1255;139924;-64
2023/12/15 16:42:27;;;;;;;23.30;13.90;;;;;;;0.13;100.00;100921.41;433894;1258;126462;-66
2023/12/15 16:52:34;;;;;;;22.00;15.70;;;;;;;0.18;100.00;100916.41;434065;1257;140061;-65
2023/12/15 17:02:41;;;;;;;20.80;15.70;;;;;;;0.17;100.00;100910.39;433944;1254;139469;-65
2023/12/15 17:12:48;;;;;;;19.50;14.50;;;;;;;0.13;100.00;100927.10;435485;1258;139487;-65
2023/12/15 17:22:52;;;;;;;;;;;;;;;0.15;100.00;100928.81;434105;1256;142621;-64
2023/12/15 17:32:59;;;;;;;22.30;15.30;;;;;;;0.17;100.00;100925.03;433956;1256;125433;-65
2023/12/15 17:43:05;;;;;;;20.40;16.20;;;;;;;0.17;100.00;100931.91;435499;1255;139358;-64
2023/12/15 17:53:12;;;;;;;20.90;16.30;;;;;;;0.13;100.00;100936.05;434563;1254;139249;-65
2023/12/15 18:03:19;;;;;;;21.70;16.20;;;;;;;0.11;100.00;100951.38;435029;1257;139956;-66
2023/12/15 18:13:27;;;;;;;21.80;16.80;;;;;;;0.11;100.00;100977.55;434174;1258;140009;-66
2023/12/15 18:23:33;;;;;;;22.30;14.80;;;;;;;0.14;100.00;100987.20;433975;1258;140221;-65
2023/12/15 18:33:40;;;;;;;22.20;17.40;;;;;;;0.19;100.00;100999.44;434528;1257;139139;-65
2023/12/15 18:43:45;;;;;;;;;;;;;;;0.27;100.00;101005.98;434460;1257;139552;-64
2023/12/15 18:53:58;;;;;;;21.10;15.50;;;;;;;0.38;100.00;101001.86;433799;1258;125710;-66
2023/12/15 19:04:04;;;;;;;19.00;14.10;;;;;;;0.47;100.00;101013.23;433814;1258;140484;-66
2023/12/15 19:14:13;;;;;;;25.40;15.70;;;;;;;0.58;100.00;101014.80;433840;1256;140364;-66
2023/12/15 19:24:19;;;;;;;25.20;16.70;;;;;;;0.66;100.00;101010.14;434940;1257;139364;-65
2023/12/15 19:34:25;;;;;;;;;;;;;;;0.68;100.00;101010.83;435309;1258;139743;-65
2023/12/15 19:44:32;;;;;;;20.90;15.60;;;;;;;0.73;100.00;101017.38;434987;1256;126211;-66
2023/12/15 19:54:37;;;;;;;;;;;;;;;0.77;100.00;101016.88;435340;1255;139590;-67
2023/12/15 20:04:49;;;;;;;21.80;15.60;;;;;;;0.84;100.00;101012.72;434796;1255;125830;-66
2023/12/15 20:14:55;;;;;;;21.10;15.40;;;;;;;0.90;100.00;101015.47;434271;1256;140153;-67
2023/12/15 20:25:04;;;;;;;22.90;15.80;;;;;;;0.93;100.00;101025.13;434943;1256;139680;-64
2023/12/15 20:35:12;;;;;;;24.00;15.90;;;;;;;0.95;100.00;101019.95;434477;1258;139982;-64
2023/12/15 20:45:18;;;;;;;19.90;15.60;;;;;;;0.97;100.00;101014.77;433552;1256;139935;-64
2023/12/15 20:55:25;;;;;;;23.10;17.60;;;;;;;0.95;100.00;101017.36;433700;1258;139867;-64
2023/12/15 21:05:32;;;;;;;23.00;18.20;;;;;;;0.94;100.00;101023.05;434052;1256;139983;-64
2023/12/15 21:15:40;;;;;;;22.70;16.90;;;;;;;0.90;100.00;101023.05;434598;1257;139878;-64
2023/12/15 21:25:46;;;;;;;35.90;21.00;;;;;;;0.83;100.00;101040.30;434203;1258;139166;-63
2023/12/15 21:35:52;;;;;;;23.70;16.60;;;;;;;0.78;100.00;101058.40;434217;1259;139809;-63
2023/12/15 21:46:02;;;;;;;27.20;18.90;;;;;;;0.77;100.00;101065.48;434875;1256;139651;-63
2023/12/15 21:56:10;;;;;;;24.00;17.40;;;;;;;0.75;100.00;101048.06;435297;1256;139431;-63
2023/12/15 22:06:18;;;;;;;24.40;18.10;;;;;;;0.76;100.00;101046.34;434260;1256;139697;-64
2023/12/15 22:16:25;;;;;;;25.70;19.10;;;;;;;0.81;100.00;101044.44;435170;1256;140966;-63
2023/12/15 22:26:31;;;;;;;27.80;19.40;;;;;;;0.91;100.00;101052.03;434066;1256;139932;-64
2023/12/15 22:36:38;;;;;;;34.40;22.40;;;;;;;1.03;100.00;101052.01;434393;1255;140221;-64
2023/12/15 22:46:45;;;;;;;27.40;19.70;;;;;;;1.13;100.00;101048.39;435185;1258;139997;-64
2023/12/15 22:56:51;;;;;;;36.30;24.00;;;;;;;1.20;100.00;101059.07;434893;1259;139543;-64
2023/12/15 23:06:58;;;;;;;39.20;21.70;;;;;;;1.27;100.00;101066.13;435752;1256;140770;-63
2023/12/15 23:17:04;;;;;;;38.50;23.30;;;;;;;1.32;100.00;101053.86;434982;1258;140286;-64
2023/12/15 23:27:10;;;;;;;35.30;21.90;;;;;;;1.34;100.00;101070.27;433567;1257;140969;-64
2023/12/15 23:37:18;;;;;;;37.00;22.30;;;;;;;1.34;100.00;101054.38;433486;1256;199189;-64
2023/12/15 23:47:24;;;;;;;44.30;23.00;;;;;;;1.34;100.00;101070.26;434795;1258;139990;-64
2023/12/15 23:57:30;;;;;;;44.30;24.90;;;;;;;1.36;100.00;101097.00;433890;1259;140103;-64
